sensor_id;sensor_type;location;lat;lon;timestamp;temperature;humidity
11423;DHT22;5768;51.476;7.210;2023-04-24T00:02:34;12.40;15.20
11423;DHT22;5768;51.476;7.210;2023-04-24T00:07:38;12.40;15.30
11423;DHT22;5768;51.476;7.210;2023-04-24T00:12:42;12.30;15.30
11423;DHT22;5768;51.476;7.210;2023-04-24T00:17:44;12.20;15.30
11423;DHT22;5768;51.476;7.210;2023-04-24T00:22:47;12.10;15.30
11423;DHT22;5768;51.476;7.210;2023-04-24T00:27:51;11.80;15.40
11423;DHT22;5768;51.476;7.210;2023-04-24T00:32:53;11.70;15.40
11423;DHT22;5768;51.476;7.210;2023-04-24T00:37:55;11.70;15.50
11423;DHT22;5768;51.476;7.210;2023-04-24T00:42:59;11.80;15.50
11423;DHT22;5768;51.476;7.210;2023-04-24T00:48:02;11.50;15.60
11423;DHT22;5768;51.476;7.210;2023-04-24T00:53:04;11.50;15.60
11423;DHT22;5768;51.476;7.210;2023-04-24T00:58:08;11.40;15.70
11423;DHT22;5768;51.476;7.210;2023-04-24T01:03:10;11.20;15.80
11423;DHT22;5768;51.476;7.210;2023-04-24T01:08:13;11.20;15.90
11423;DHT22;5768;51.476;7.210;2023-04-24T01:13:18;11.10;15.90
11423;DHT22;5768;51.476;7.210;2023-04-24T01:18:21;11.10;15.90
11423;DHT22;5768;51.476;7.210;2023-04-24T01:23:25;10.90;15.80
11423;DHT22;5768;51.476;7.210;2023-04-24T01:28:28;11.10;15.70
11423;DHT22;5768;51.476;7.210;2023-04-24T01:33:30;10.70;15.80
11423;DHT22;5768;51.476;7.210;2023-04-24T01:38:34;11.30;15.70
11423;DHT22;5768;51.476;7.210;2023-04-24T01:43:37;11.20;15.80
11423;DHT22;5768;51.476;7.210;2023-04-24T01:48:40;11.00;15.80
11423;DHT22;5768;51.476;7.210;2023-04-24T01:53:44;11.10;16.00
11423;DHT22;5768;51.476;7.210;2023-04-24T01:58:47;10.80;16.10
11423;DHT22;5768;51.476;7.210;2023-04-24T02:03:51;10.70;16.20
11423;DHT22;5768;51.476;7.210;2023-04-24T02:08:54;10.50;16.40
11423;DHT22;5768;51.476;7.210;2023-04-24T02:13:57;10.60;16.40
11423;DHT22;5768;51.476;7.210;2023-04-24T02:18:59;10.40;16.30
11423;DHT22;5768;51.476;7.210;2023-04-24T02:24:03;10.30;16.30
11423;DHT22;5768;51.476;7.210;2023-04-24T02:29:06;9.90;16.60
11423;DHT22;5768;51.476;7.210;2023-04-24T02:34:09;10.00;16.70
11423;DHT22;5768;51.476;7.210;2023-04-24T02:39:12;9.90;16.80
11423;DHT22;5768;51.476;7.210;2023-04-24T02:44:17;10.00;16.80
11423;DHT22;5768;51.476;7.210;2023-04-24T02:49:19;10.00;16.90
11423;DHT22;5768;51.476;7.210;2023-04-24T02:54:23;9.90;16.90
11423;DHT22;5768;51.476;7.210;2023-04-24T02:59:25;9.80;17.10
11423;DHT22;5768;51.476;7.210;2023-04-24T03:04:29;10.00;17.20
11423;DHT22;5768;51.476;7.210;2023-04-24T03:09:34;10.20;17.00
11423;DHT22;5768;51.476;7.210;2023-04-24T03:14:36;10.30;17.00
11423;DHT22;5768;51.476;7.210;2023-04-24T03:19:39;10.30;16.90
11423;DHT22;5768;51.476;7.210;2023-04-24T03:24:43;10.40;16.80
11423;DHT22;5768;51.476;7.210;2023-04-24T03:29:45;10.60;16.70
11423;DHT22;5768;51.476;7.210;2023-04-24T03:34:47;10.50;16.60
11423;DHT22;5768;51.476;7.210;2023-04-24T03:39:50;10.30;16.80
11423;DHT22;5768;51.476;7.210;2023-04-24T03:44:53;10.30;16.90
11423;DHT22;5768;51.476;7.210;2023-04-24T03:49:55;10.50;16.80
11423;DHT22;5768;51.476;7.210;2023-04-24T03:54:59;10.50;16.70
11423;DHT22;5768;51.476;7.210;2023-04-24T04:00:02;10.50;16.70
11423;DHT22;5768;51.476;7.210;2023-04-24T04:05:07;10.50;16.80
11423;DHT22;5768;51.476;7.210;2023-04-24T04:10:12;10.60;16.70
11423;DHT22;5768;51.476;7.210;2023-04-24T04:15:15;10.70;16.60
11423;DHT22;5768;51.476;7.210;2023-04-24T04:20:17;10.60;16.40
11423;DHT22;5768;51.476;7.210;2023-04-24T04:25:21;10.50;16.60
11423;DHT22;5768;51.476;7.210;2023-04-24T04:30:24;10.50;16.60
11423;DHT22;5768;51.476;7.210;2023-04-24T04:35:26;10.60;16.50
11423;DHT22;5768;51.476;7.210;2023-04-24T04:40:30;10.50;16.50
11423;DHT22;5768;51.476;7.210;2023-04-24T04:45:32;10.70;16.40
11423;DHT22;5768;51.476;7.210;2023-04-24T04:50:35;10.60;16.30
11423;DHT22;5768;51.476;7.210;2023-04-24T04:55:39;10.30;16.50
11423;DHT22;5768;51.476;7.210;2023-04-24T05:00:41;10.40;16.40
11423;DHT22;5768;51.476;7.210;2023-04-24T05:05:43;10.90;16.40
11423;DHT22;5768;51.476;7.210;2023-04-24T05:10:47;10.80;16.20
11423;DHT22;5768;51.476;7.210;2023-04-24T05:15:49;10.80;16.10
11423;DHT22;5768;51.476;7.210;2023-04-24T05:20:51;11.00;16.00
11423;DHT22;5768;51.476;7.210;2023-04-24T05:25:54;10.70;16.10
11423;DHT22;5768;51.476;7.210;2023-04-24T05:30:57;10.60;16.10
11423;DHT22;5768;51.476;7.210;2023-04-24T05:35:59;10.50;16.20
11423;DHT22;5768;51.476;7.210;2023-04-24T05:41:03;10.80;16.30
11423;DHT22;5768;51.476;7.210;2023-04-24T05:46:06;10.10;17.20
11423;DHT22;5768;51.476;7.210;2023-04-24T05:51:09;10.00;18.00
11423;DHT22;5768;51.476;7.210;2023-04-24T05:56:13;9.80;18.60
11423;DHT22;5768;51.476;7.210;2023-04-24T06:01:16;10.10;18.30
11423;DHT22;5768;51.476;7.210;2023-04-24T06:06:18;10.50;18.00
11423;DHT22;5768;51.476;7.210;2023-04-24T06:11:22;10.40;17.90
11423;DHT22;5768;51.476;7.210;2023-04-24T06:16:25;10.20;17.80
11423;DHT22;5768;51.476;7.210;2023-04-24T06:21:27;10.30;17.90
11423;DHT22;5768;51.476;7.210;2023-04-24T06:26:31;10.30;17.60
11423;DHT22;5768;51.476;7.210;2023-04-24T06:31:33;10.00;17.90
11423;DHT22;5768;51.476;7.210;2023-04-24T06:36:37;10.20;17.80
11423;DHT22;5768;51.476;7.210;2023-04-24T06:41:41;10.30;17.80
11423;DHT22;5768;51.476;7.210;2023-04-24T06:46:43;10.20;17.90
11423;DHT22;5768;51.476;7.210;2023-04-24T06:51:45;10.60;17.60
11423;DHT22;5768;51.476;7.210;2023-04-24T06:56:49;10.60;17.60
11423;DHT22;5768;51.476;7.210;2023-04-24T07:01:52;11.20;17.30
11423;DHT22;5768;51.476;7.210;2023-04-24T07:06:54;10.40;18.10
11423;DHT22;5768;51.476;7.210;2023-04-24T07:11:59;10.50;19.00
11423;DHT22;5768;51.476;7.210;2023-04-24T07:17:02;11.00;18.30
11423;DHT22;5768;51.476;7.210;2023-04-24T07:22:05;10.90;17.50
11423;DHT22;5768;51.476;7.210;2023-04-24T07:27:08;10.10;18.10
11423;DHT22;5768;51.476;7.210;2023-04-24T07:32:11;10.80;17.90
11423;DHT22;5768;51.476;7.210;2023-04-24T07:37:13;10.60;17.60
11423;DHT22;5768;51.476;7.210;2023-04-24T07:42:16;10.80;17.70
11423;DHT22;5768;51.476;7.210;2023-04-24T07:47:19;11.20;17.40
11423;DHT22;5768;51.476;7.210;2023-04-24T07:52:21;11.20;17.20
11423;DHT22;5768;51.476;7.210;2023-04-24T07:57:25;10.90;16.90
11423;DHT22;5768;51.476;7.210;2023-04-24T08:02:27;10.80;17.40
11423;DHT22;5768;51.476;7.210;2023-04-24T08:07:29;10.80;17.70
11423;DHT22;5768;51.476;7.210;2023-04-24T08:12:33;10.30;17.60
11423;DHT22;5768;51.476;7.210;2023-04-24T08:17:35;10.10;17.70
11423;DHT22;5768;51.476;7.210;2023-04-24T08:22:37;9.60;18.20
11423;DHT22;5768;51.476;7.210;2023-04-24T08:27:41;9.50;18.60
11423;DHT22;5768;51.476;7.210;2023-04-24T08:32:44;9.70;19.20
11423;DHT22;5768;51.476;7.210;2023-04-24T08:37:46;9.80;18.70
11423;DHT22;5768;51.476;7.210;2023-04-24T08:42:50;9.50;19.00
11423;DHT22;5768;51.476;7.210;2023-04-24T08:47:57;9.30;19.90
11423;DHT22;5768;51.476;7.210;2023-04-24T08:53:01;9.10;21.80
11423;DHT22;5768;51.476;7.210;2023-04-24T08:58:04;9.00;23.00
11423;DHT22;5768;51.476;7.210;2023-04-24T09:03:07;8.90;23.40
11423;DHT22;5768;51.476;7.210;2023-04-24T09:08:09;9.00;24.00
11423;DHT22;5768;51.476;7.210;2023-04-24T09:13:15;9.10;23.80
11423;DHT22;5768;51.476;7.210;2023-04-24T09:18:17;9.00;24.10
11423;DHT22;5768;51.476;7.210;2023-04-24T09:23:20;9.20;24.90
11423;DHT22;5768;51.476;7.210;2023-04-24T09:28:29;9.70;24.10
11423;DHT22;5768;51.476;7.210;2023-04-24T09:33:32;9.60;24.60
11423;DHT22;5768;51.476;7.210;2023-04-24T09:38:36;9.60;24.40
11423;DHT22;5768;51.476;7.210;2023-04-24T09:43:40;9.60;25.00
11423;DHT22;5768;51.476;7.210;2023-04-24T09:48:43;9.70;25.30
11423;DHT22;5768;51.476;7.210;2023-04-24T09:53:46;9.80;25.10
11423;DHT22;5768;51.476;7.210;2023-04-24T09:58:49;9.60;23.70
11423;DHT22;5768;51.476;7.210;2023-04-24T10:03:52;9.20;24.70
11423;DHT22;5768;51.476;7.210;2023-04-24T10:08:54;8.80;26.70
11423;DHT22;5768;51.476;7.210;2023-04-24T10:14:00;8.80;26.90
11423;DHT22;5768;51.476;7.210;2023-04-24T10:19:03;8.40;25.50
11423;DHT22;5768;51.476;7.210;2023-04-24T10:24:05;8.40;26.40
11423;DHT22;5768;51.476;7.210;2023-04-24T10:29:12;8.50;25.90
11423;DHT22;5768;51.476;7.210;2023-04-24T10:34:17;8.70;24.90
11423;DHT22;5768;51.476;7.210;2023-04-24T10:39:22;9.00;25.80
11423;DHT22;5768;51.476;7.210;2023-04-24T10:44:36;9.20;24.50
11423;DHT22;5768;51.476;7.210;2023-04-24T10:49:38;9.20;25.00
11423;DHT22;5768;51.476;7.210;2023-04-24T10:54:42;9.10;24.40
11423;DHT22;5768;51.476;7.210;2023-04-24T10:59:49;9.30;24.00
11423;DHT22;5768;51.476;7.210;2023-04-24T11:04:53;9.40;24.10
11423;DHT22;5768;51.476;7.210;2023-04-24T11:09:58;9.50;23.30
11423;DHT22;5768;51.476;7.210;2023-04-24T11:15:03;9.60;24.00
11423;DHT22;5768;51.476;7.210;2023-04-24T11:20:17;9.10;23.80
11423;DHT22;5768;51.476;7.210;2023-04-24T11:25:21;9.60;24.60
11423;DHT22;5768;51.476;7.210;2023-04-24T11:30:29;9.70;23.40
11423;DHT22;5768;51.476;7.210;2023-04-24T11:35:36;10.10;22.60
11423;DHT22;5768;51.476;7.210;2023-04-24T11:40:42;10.50;21.20
11423;DHT22;5768;51.476;7.210;2023-04-24T11:45:49;11.10;19.40
11423;DHT22;5768;51.476;7.210;2023-04-24T11:50:51;11.40;19.00
11423;DHT22;5768;51.476;7.210;2023-04-24T11:55:53;10.90;19.60
11423;DHT22;5768;51.476;7.210;2023-04-24T12:00:57;10.60;20.80
11423;DHT22;5768;51.476;7.210;2023-04-24T12:06:05;10.20;20.80
11423;DHT22;5768;51.476;7.210;2023-04-24T12:11:08;10.00;19.80
11423;DHT22;5768;51.476;7.210;2023-04-24T12:16:12;10.50;19.10
11423;DHT22;5768;51.476;7.210;2023-04-24T12:21:18;11.40;17.60
11423;DHT22;5768;51.476;7.210;2023-04-24T12:26:21;12.30;16.60
11423;DHT22;5768;51.476;7.210;2023-04-24T12:31:27;13.50;16.00
11423;DHT22;5768;51.476;7.210;2023-04-24T12:36:31;12.60;16.20
11423;DHT22;5768;51.476;7.210;2023-04-24T12:41:37;12.30;15.90
11423;DHT22;5768;51.476;7.210;2023-04-24T12:46:51;12.10;15.70
11423;DHT22;5768;51.476;7.210;2023-04-24T12:51:54;11.30;16.00
11423;DHT22;5768;51.476;7.210;2023-04-24T12:56:56;10.90;16.40
11423;DHT22;5768;51.476;7.210;2023-04-24T13:01:59;10.80;16.60
11423;DHT22;5768;51.476;7.210;2023-04-24T13:07:01;11.40;16.30
11423;DHT22;5768;51.476;7.210;2023-04-24T13:12:04;11.60;15.30
11423;DHT22;5768;51.476;7.210;2023-04-24T13:17:08;12.30;14.70
11423;DHT22;5768;51.476;7.210;2023-04-24T13:22:13;12.50;14.10
11423;DHT22;5768;51.476;7.210;2023-04-24T13:27:15;12.40;14.20
11423;DHT22;5768;51.476;7.210;2023-04-24T13:32:19;12.70;14.20
11423;DHT22;5768;51.476;7.210;2023-04-24T13:37:21;12.00;14.10
11423;DHT22;5768;51.476;7.210;2023-04-24T13:42:24;11.60;14.10
11423;DHT22;5768;51.476;7.210;2023-04-24T13:47:27;11.90;14.20
11423;DHT22;5768;51.476;7.210;2023-04-24T13:52:29;12.00;13.90
11423;DHT22;5768;51.476;7.210;2023-04-24T13:57:32;11.60;13.90
11423;DHT22;5768;51.476;7.210;2023-04-24T14:02:35;11.60;14.20
11423;DHT22;5768;51.476;7.210;2023-04-24T14:07:39;11.90;14.10
11423;DHT22;5768;51.476;7.210;2023-04-24T14:12:41;12.30;14.10
11423;DHT22;5768;51.476;7.210;2023-04-24T14:17:45;12.90;13.50
11423;DHT22;5768;51.476;7.210;2023-04-24T14:22:47;13.30;13.10
11423;DHT22;5768;51.476;7.210;2023-04-24T14:27:50;13.10;13.10
11423;DHT22;5768;51.476;7.210;2023-04-24T14:32:53;13.20;13.20
11423;DHT22;5768;51.476;7.210;2023-04-24T14:37:56;12.80;13.30
11423;DHT22;5768;51.476;7.210;2023-04-24T14:42:58;12.30;13.60
11423;DHT22;5768;51.476;7.210;2023-04-24T14:48:02;11.70;13.50
11423;DHT22;5768;51.476;7.210;2023-04-24T14:53:04;11.50;13.70
11423;DHT22;5768;51.476;7.210;2023-04-24T14:58:06;11.60;13.90
11423;DHT22;5768;51.476;7.210;2023-04-24T15:03:10;11.30;13.90
11423;DHT22;5768;51.476;7.210;2023-04-24T15:08:12;11.00;14.40
11423;DHT22;5768;51.476;7.210;2023-04-24T15:13:14;10.90;15.10
11423;DHT22;5768;51.476;7.210;2023-04-24T15:18:18;10.80;15.20
11423;DHT22;5768;51.476;7.210;2023-04-24T15:23:20;10.90;16.50
11423;DHT22;5768;51.476;7.210;2023-04-24T15:28:24;12.60;14.80
11423;DHT22;5768;51.476;7.210;2023-04-24T15:33:28;12.90;14.60
11423;DHT22;5768;51.476;7.210;2023-04-24T15:38:30;13.40;14.20
11423;DHT22;5768;51.476;7.210;2023-04-24T15:43:33;14.60;13.30
11423;DHT22;5768;51.476;7.210;2023-04-24T15:48:36;17.70;11.50
11423;DHT22;5768;51.476;7.210;2023-04-24T15:53:41;17.60;11.10
11423;DHT22;5768;51.476;7.210;2023-04-24T15:58:44;16.50;11.50
11423;DHT22;5768;51.476;7.210;2023-04-24T16:03:48;17.40;10.90
11423;DHT22;5768;51.476;7.210;2023-04-24T16:08:50;18.30;10.70
11423;DHT22;5768;51.476;7.210;2023-04-24T16:13:52;17.20;10.80
11423;DHT22;5768;51.476;7.210;2023-04-24T16:18:56;15.10;11.30
11423;DHT22;5768;51.476;7.210;2023-04-24T16:23:58;16.00;11.10
11423;DHT22;5768;51.476;7.210;2023-04-24T16:29:00;15.20;11.40
11423;DHT22;5768;51.476;7.210;2023-04-24T16:34:04;19.30;10.30
11423;DHT22;5768;51.476;7.210;2023-04-24T16:39:06;18.10;10.10
11423;DHT22;5768;51.476;7.210;2023-04-24T16:44:09;18.50;10.10
11423;DHT22;5768;51.476;7.210;2023-04-24T16:49:14;15.80;10.50
11423;DHT22;5768;51.476;7.210;2023-04-24T16:54:17;13.90;11.20
11423;DHT22;5768;51.476;7.210;2023-04-24T16:59:19;13.00;11.80
11423;DHT22;5768;51.476;7.210;2023-04-24T17:04:24;12.60;12.10
11423;DHT22;5768;51.476;7.210;2023-04-24T17:09:26;12.20;12.30
11423;DHT22;5768;51.476;7.210;2023-04-24T17:14:29;12.20;12.50
11423;DHT22;5768;51.476;7.210;2023-04-24T17:19:32;11.60;13.00
11423;DHT22;5768;51.476;7.210;2023-04-24T17:24:35;10.90;14.90
11423;DHT22;5768;51.476;7.210;2023-04-24T17:29:37;10.20;16.20
11423;DHT22;5768;51.476;7.210;2023-04-24T17:34:41;10.20;16.20
11423;DHT22;5768;51.476;7.210;2023-04-24T17:39:43;10.60;15.80
11423;DHT22;5768;51.476;7.210;2023-04-24T17:44:45;10.70;14.80
11423;DHT22;5768;51.476;7.210;2023-04-24T17:49:49;10.80;14.70
11423;DHT22;5768;51.476;7.210;2023-04-24T17:54:52;10.60;14.30
11423;DHT22;5768;51.476;7.210;2023-04-24T17:59:54;12.00;13.80
11423;DHT22;5768;51.476;7.210;2023-04-24T18:04:58;12.30;13.30
11423;DHT22;5768;51.476;7.210;2023-04-24T18:10:00;13.20;12.90
11423;DHT22;5768;51.476;7.210;2023-04-24T18:15:04;13.00;12.80
11423;DHT22;5768;51.476;7.210;2023-04-24T18:20:09;11.90;13.20
11423;DHT22;5768;51.476;7.210;2023-04-24T18:25:12;11.30;13.10
11423;DHT22;5768;51.476;7.210;2023-04-24T18:30:15;10.80;13.40
11423;DHT22;5768;51.476;7.210;2023-04-24T18:35:19;10.80;13.70
11423;DHT22;5768;51.476;7.210;2023-04-24T18:40:21;10.80;13.80
11423;DHT22;5768;51.476;7.210;2023-04-24T18:45:23;10.60;13.70
11423;DHT22;5768;51.476;7.210;2023-04-24T18:50:31;10.50;13.90
11423;DHT22;5768;51.476;7.210;2023-04-24T18:55:34;10.40;14.00
11423;DHT22;5768;51.476;7.210;2023-04-24T19:00:36;10.30;14.10
11423;DHT22;5768;51.476;7.210;2023-04-24T19:05:40;10.00;14.20
11423;DHT22;5768;51.476;7.210;2023-04-24T19:10:42;10.20;14.30
11423;DHT22;5768;51.476;7.210;2023-04-24T19:15:44;10.00;14.30
11423;DHT22;5768;51.476;7.210;2023-04-24T19:20:48;10.00;14.50
11423;DHT22;5768;51.476;7.210;2023-04-24T19:25:50;9.80;14.40
11423;DHT22;5768;51.476;7.210;2023-04-24T19:30:52;9.70;14.60
11423;DHT22;5768;51.476;7.210;2023-04-24T19:35:59;9.60;14.70
11423;DHT22;5768;51.476;7.210;2023-04-24T19:41:02;9.60;14.70
11423;DHT22;5768;51.476;7.210;2023-04-24T19:46:04;9.50;14.70
11423;DHT22;5768;51.476;7.210;2023-04-24T19:51:08;9.50;14.80
11423;DHT22;5768;51.476;7.210;2023-04-24T19:56:10;9.40;15.00
11423;DHT22;5768;51.476;7.210;2023-04-24T20:01:12;9.70;15.00
11423;DHT22;5768;51.476;7.210;2023-04-24T20:06:16;9.90;15.00
11423;DHT22;5768;51.476;7.210;2023-04-24T20:11:18;9.70;15.00
11423;DHT22;5768;51.476;7.210;2023-04-24T20:16:20;9.60;15.20
11423;DHT22;5768;51.476;7.210;2023-04-24T20:21:25;9.60;15.30
11423;DHT22;5768;51.476;7.210;2023-04-24T20:26:27;9.60;15.20
11423;DHT22;5768;51.476;7.210;2023-04-24T20:31:30;9.40;15.20
11423;DHT22;5768;51.476;7.210;2023-04-24T20:36:34;9.30;15.40
11423;DHT22;5768;51.476;7.210;2023-04-24T20:41:37;9.30;15.40
11423;DHT22;5768;51.476;7.210;2023-04-24T20:46:39;9.10;15.30
11423;DHT22;5768;51.476;7.210;2023-04-24T20:51:42;9.20;15.50
11423;DHT22;5768;51.476;7.210;2023-04-24T20:56:45;9.30;15.40
11423;DHT22;5768;51.476;7.210;2023-04-24T21:01:47;9.40;15.30
11423;DHT22;5768;51.476;7.210;2023-04-24T21:06:51;9.50;15.30
11423;DHT22;5768;51.476;7.210;2023-04-24T21:11:54;9.40;15.20
11423;DHT22;5768;51.476;7.210;2023-04-24T21:16:57;9.30;15.10
11423;DHT22;5768;51.476;7.210;2023-04-24T21:22:01;9.10;15.30
11423;DHT22;5768;51.476;7.210;2023-04-24T21:27:04;8.80;15.40
11423;DHT22;5768;51.476;7.210;2023-04-24T21:32:07;8.70;15.70
11423;DHT22;5768;51.476;7.210;2023-04-24T21:37:10;8.60;15.70
11423;DHT22;5768;51.476;7.210;2023-04-24T21:42:15;8.50;15.80
11423;DHT22;5768;51.476;7.210;2023-04-24T21:47:17;8.40;15.90
11423;DHT22;5768;51.476;7.210;2023-04-24T21:52:21;8.50;15.90
11423;DHT22;5768;51.476;7.210;2023-04-24T21:57:23;8.60;15.80
11423;DHT22;5768;51.476;7.210;2023-04-24T22:02:25;8.50;15.80
11423;DHT22;5768;51.476;7.210;2023-04-24T22:07:31;8.40;16.00
11423;DHT22;5768;51.476;7.210;2023-04-24T22:12:36;8.60;16.00
11423;DHT22;5768;51.476;7.210;2023-04-24T22:17:38;8.20;16.00
11423;DHT22;5768;51.476;7.210;2023-04-24T22:22:42;8.20;16.00
11423;DHT22;5768;51.476;7.210;2023-04-24T22:27:45;8.10;16.10
11423;DHT22;5768;51.476;7.210;2023-04-24T22:32:47;8.00;16.20
11423;DHT22;5768;51.476;7.210;2023-04-24T22:37:55;8.10;16.20
11423;DHT22;5768;51.476;7.210;2023-04-24T22:42:57;8.00;16.20
11423;DHT22;5768;51.476;7.210;2023-04-24T22:48:00;8.00;16.20
11423;DHT22;5768;51.476;7.210;2023-04-24T22:53:03;8.00;16.20
11423;DHT22;5768;51.476;7.210;2023-04-24T22:58:06;8.00;16.20
11423;DHT22;5768;51.476;7.210;2023-04-24T23:03:08;8.00;16.20
11423;DHT22;5768;51.476;7.210;2023-04-24T23:08:12;8.10;16.10
11423;DHT22;5768;51.476;7.210;2023-04-24T23:13:14;8.10;16.10
11423;DHT22;5768;51.476;7.210;2023-04-24T23:18:16;8.00;16.20
11423;DHT22;5768;51.476;7.210;2023-04-24T23:23:22;8.10;16.20
11423;DHT22;5768;51.476;7.210;2023-04-24T23:28:28;7.90;16.20
11423;DHT22;5768;51.476;7.210;2023-04-24T23:33:30;7.80;16.40
11423;DHT22;5768;51.476;7.210;2023-04-24T23:38:34;7.90;16.30
11423;DHT22;5768;51.476;7.210;2023-04-24T23:43:37;7.80;16.30
11423;DHT22;5768;51.476;7.210;2023-04-24T23:48:39;7.80;16.40
11423;DHT22;5768;51.476;7.210;2023-04-24T23:53:42;7.90;16.30
11423;DHT22;5768;51.476;7.210;2023-04-24T23:58:45;8.00;16.40
